createdAt,value
2023-05-17T00:00:01.233Z,22.26
2023-05-17T00:01:01.264Z,22.26
2023-05-17T00:02:01.307Z,22.26
2023-05-17T00:03:01.431Z,22.26
2023-05-17T00:04:01.494Z,22.26
2023-05-17T00:05:01.738Z,22.26
2023-05-17T00:06:01.610Z,22.26
2023-05-17T00:07:01.622Z,22.26
2023-05-17T00:08:01.696Z,22.26
2023-05-17T00:09:01.750Z,22.26
2023-05-17T00:10:01.821Z,22.25
2023-05-17T00:11:01.838Z,22.26
2023-05-17T00:12:01.890Z,22.26
2023-05-17T00:13:02.285Z,22.26
2023-05-17T00:14:02.020Z,22.26
2023-05-17T00:15:02.044Z,22.26
2023-05-17T00:16:02.107Z,22.26
2023-05-17T00:17:02.175Z,22.26
2023-05-17T00:18:02.331Z,22.25
2023-05-17T00:19:02.397Z,22.25
2023-05-17T00:20:02.356Z,22.25
2023-05-17T00:21:02.395Z,22.25
2023-05-17T00:22:02.508Z,22.24
2023-05-17T00:23:02.522Z,22.24
2023-05-17T00:24:02.566Z,22.24
2023-05-17T00:25:02.613Z,22.24
2023-05-17T00:26:02.659Z,22.24
2023-05-17T00:27:02.725Z,22.23
2023-05-17T00:28:02.774Z,22.23
2023-05-17T00:29:02.865Z,22.23
2023-05-17T00:30:02.984Z,22.23
2023-05-17T00:31:02.986Z,22.23
2023-05-17T00:32:03.018Z,22.23
2023-05-17T00:33:03.124Z,22.23
2023-05-17T00:34:03.153Z,22.23
2023-05-17T00:35:03.224Z,22.23
2023-05-17T00:36:03.259Z,22.22
2023-05-17T00:37:03.319Z,22.22
2023-05-17T00:38:03.466Z,22.22
2023-05-17T00:39:03.442Z,22.22
2023-05-17T00:40:03.497Z,22.22
2023-05-17T00:41:03.552Z,22.22
2023-05-17T00:42:03.633Z,22.22
2023-05-17T00:43:03.688Z,22.22
2023-05-17T00:44:03.745Z,22.22
2023-05-17T00:45:03.788Z,22.22
2023-05-17T00:46:03.868Z,22.22
2023-05-17T00:47:03.932Z,22.21
2023-05-17T00:48:04.047Z,22.22
2023-05-17T00:49:04.025Z,22.22
2023-05-17T00:50:04.105Z,22.21
2023-05-17T00:51:04.145Z,22.22
2023-05-17T00:52:04.216Z,22.22
2023-05-17T00:53:04.239Z,22.21
2023-05-17T00:54:04.377Z,22.21
2023-05-17T00:55:04.373Z,22.21
2023-05-17T00:56:04.463Z,22.21
2023-05-17T00:57:04.508Z,22.21
2023-05-17T00:58:04.611Z,22.21
2023-05-17T00:59:04.615Z,22.20
2023-05-17T01:00:04.702Z,22.20
2023-05-17T01:01:04.784Z,22.20
2023-05-17T01:02:04.817Z,22.20
2023-05-17T01:03:04.989Z,22.20
2023-05-17T01:04:05.028Z,22.21
2023-05-17T01:05:05.121Z,22.20
2023-05-17T01:06:05.079Z,22.19
2023-05-17T01:07:05.148Z,22.20
2023-05-17T01:08:05.206Z,22.20
2023-05-17T01:09:05.264Z,22.20
2023-05-17T01:10:05.507Z,22.19
2023-05-17T01:11:05.388Z,22.20
2023-05-17T01:12:05.447Z,22.20
2023-05-17T01:13:05.509Z,22.20
2023-05-17T01:14:05.586Z,22.20
2023-05-17T01:15:05.668Z,22.20
2023-05-17T01:16:05.677Z,22.20
2023-05-17T01:17:05.735Z,22.20
2023-05-17T01:18:05.856Z,22.20
2023-05-17T01:19:05.895Z,22.19
2023-05-17T01:20:05.959Z,22.20
2023-05-17T01:21:06.012Z,22.19
2023-05-17T01:22:06.059Z,22.19
2023-05-17T01:23:06.143Z,22.19
2023-05-17T01:24:06.177Z,22.18
2023-05-17T01:25:06.238Z,22.19
2023-05-17T01:26:06.418Z,22.19
2023-05-17T01:27:06.367Z,22.19
2023-05-17T01:28:06.441Z,22.19
2023-05-17T01:29:06.480Z,22.19
2023-05-17T01:30:06.536Z,22.18
2023-05-17T01:31:06.608Z,22.19
2023-05-17T01:32:06.736Z,22.18
2023-05-17T01:33:06.932Z,22.19
2023-05-17T01:34:06.798Z,22.18
2023-05-17T01:35:06.842Z,22.19
2023-05-17T01:36:06.914Z,22.18
2023-05-17T01:37:06.978Z,22.18
2023-05-17T01:38:07.024Z,22.18
2023-05-17T01:39:07.098Z,22.19
2023-05-17T01:40:07.172Z,22.17
2023-05-17T01:41:07.232Z,22.17
2023-05-17T01:42:07.433Z,22.17
2023-05-17T01:43:07.364Z,22.16
2023-05-17T01:44:07.408Z,22.17
2023-05-17T01:45:07.475Z,22.16
2023-05-17T01:46:07.544Z,22.17
2023-05-17T01:47:07.619Z,22.17
2023-05-17T01:48:07.849Z,22.16
2023-05-17T01:49:07.729Z,22.17
2023-05-17T01:50:07.788Z,22.17
2023-05-17T01:51:07.853Z,22.17
2023-05-17T01:52:07.940Z,22.17
2023-05-17T01:53:08.016Z,22.16
2023-05-17T01:54:08.032Z,22.16
2023-05-17T01:55:08.066Z,22.16
2023-05-17T01:56:08.145Z,22.16
2023-05-17T01:57:08.205Z,22.17
2023-05-17T01:58:08.399Z,22.15
2023-05-17T01:59:08.316Z,22.16
2023-05-17T02:00:08.371Z,22.15
2023-05-17T02:01:08.429Z,22.15
2023-05-17T02:02:08.475Z,22.15
2023-05-17T02:03:08.539Z,22.15
2023-05-17T02:04:08.672Z,22.15
2023-05-17T02:05:08.786Z,22.15
2023-05-17T02:06:08.715Z,22.15
2023-05-17T02:07:08.775Z,22.14
2023-05-17T02:08:08.839Z,22.14
2023-05-17T02:09:08.909Z,22.15
2023-05-17T02:10:08.989Z,22.15
2023-05-17T02:11:09.020Z,22.15
2023-05-17T02:12:09.117Z,22.15
2023-05-17T02:13:09.153Z,22.15
2023-05-17T02:14:09.272Z,22.15
2023-05-17T02:15:09.256Z,22.15
2023-05-17T02:16:09.320Z,22.14
2023-05-17T02:17:09.393Z,22.14
2023-05-17T02:18:09.561Z,22.14
2023-05-17T02:19:09.651Z,22.13
2023-05-17T02:20:09.561Z,22.15
2023-05-17T02:21:09.624Z,22.14
2023-05-17T02:22:09.690Z,22.14
2023-05-17T02:23:09.762Z,22.13
2023-05-17T02:24:09.822Z,22.13
2023-05-17T02:25:09.903Z,22.13
2023-05-17T02:26:09.950Z,22.13
2023-05-17T02:27:10.023Z,22.14
2023-05-17T02:28:10.111Z,22.13
2023-05-17T02:29:10.117Z,22.14
2023-05-17T02:30:10.229Z,22.13
2023-05-17T02:31:10.255Z,22.12
2023-05-17T02:32:10.289Z,22.12
2023-05-17T02:33:10.404Z,22.12
2023-05-17T02:34:10.388Z,22.13
2023-05-17T02:35:10.447Z,22.13
2023-05-17T02:36:10.504Z,22.13
2023-05-17T02:37:10.559Z,22.12
2023-05-17T02:38:10.602Z,22.12
2023-05-17T02:39:10.652Z,22.12
2023-05-17T02:40:10.775Z,22.11
2023-05-17T02:41:10.749Z,22.12
2023-05-17T02:42:10.784Z,22.11
2023-05-17T02:43:10.827Z,22.12
2023-05-17T02:44:10.841Z,22.12
2023-05-17T02:45:10.886Z,22.12
2023-05-17T02:46:11.052Z,22.12
2023-05-17T02:47:10.997Z,22.11
2023-05-17T02:48:11.071Z,22.11
2023-05-17T02:49:11.067Z,22.10
2023-05-17T02:50:11.100Z,22.11
2023-05-17T02:51:11.125Z,22.10
2023-05-17T02:52:11.210Z,22.10
2023-05-17T02:53:11.238Z,22.10
2023-05-17T02:54:11.279Z,22.10
2023-05-17T02:55:11.334Z,22.11
2023-05-17T02:56:11.380Z,22.10
2023-05-17T02:57:11.438Z,22.11
2023-05-17T02:58:11.457Z,22.12
2023-05-17T02:59:11.508Z,22.12
2023-05-17T03:00:11.580Z,22.12
2023-05-17T03:01:11.631Z,22.10
2023-05-17T03:02:11.839Z,22.10
2023-05-17T03:03:11.822Z,22.10
2023-05-17T03:04:11.854Z,22.11
2023-05-17T03:05:11.811Z,22.10
2023-05-17T03:06:11.854Z,22.10
2023-05-17T03:07:11.878Z,22.09
2023-05-17T03:08:11.895Z,22.09
2023-05-17T03:09:11.905Z,22.09
2023-05-17T03:10:11.938Z,22.09
2023-05-17T03:11:11.978Z,22.09
2023-05-17T03:12:12.033Z,22.09
2023-05-17T03:13:12.080Z,22.09
2023-05-17T03:14:12.107Z,22.09
2023-05-17T03:15:12.151Z,22.08
2023-05-17T03:16:12.190Z,22.08
2023-05-17T03:17:12.224Z,22.08
2023-05-17T03:18:12.605Z,22.09
2023-05-17T03:19:12.405Z,22.08
2023-05-17T03:20:12.322Z,22.09
2023-05-17T03:21:12.386Z,22.09
2023-05-17T03:22:12.408Z,22.08
2023-05-17T03:23:12.426Z,22.09
2023-05-17T03:24:12.496Z,22.09
2023-05-17T03:25:12.506Z,22.08
2023-05-17T03:26:12.583Z,22.08
2023-05-17T03:27:12.577Z,22.08
2023-05-17T03:28:12.601Z,22.08
2023-05-17T03:29:12.635Z,22.08
2023-05-17T03:30:12.611Z,22.08
2023-05-17T03:31:12.667Z,22.08
2023-05-17T03:32:12.661Z,22.07
2023-05-17T03:33:12.819Z,22.08
2023-05-17T03:34:12.772Z,22.08
2023-05-17T03:35:12.705Z,22.08
2023-05-17T03:36:12.749Z,22.08
2023-05-17T03:37:12.752Z,22.07
2023-05-17T03:38:12.804Z,22.07
2023-05-17T03:39:12.838Z,22.07
2023-05-17T03:40:12.820Z,22.07
2023-05-17T03:41:12.853Z,22.07
2023-05-17T03:42:12.837Z,22.08
2023-05-17T03:43:12.858Z,22.08
2023-05-17T03:44:12.900Z,22.07
2023-05-17T03:45:12.951Z,22.07
2023-05-17T03:46:13.026Z,22.08
2023-05-17T03:47:12.984Z,22.07
2023-05-17T03:48:13.041Z,22.08
2023-05-17T03:49:13.077Z,22.08
2023-05-17T03:50:13.211Z,22.08
2023-05-17T03:51:13.112Z,22.08
2023-05-17T03:52:13.110Z,22.07
2023-05-17T03:53:13.150Z,22.07
2023-05-17T03:54:13.166Z,22.07
2023-05-17T03:55:13.182Z,22.06
2023-05-17T03:56:13.234Z,22.07
2023-05-17T03:57:13.202Z,22.07
2023-05-17T03:58:13.230Z,22.06
2023-05-17T03:59:13.233Z,22.06
2023-05-17T04:00:13.256Z,22.06
2023-05-17T04:01:13.292Z,22.06
2023-05-17T04:02:13.316Z,22.06
2023-05-17T04:03:13.363Z,22.06
2023-05-17T04:04:13.438Z,22.07
2023-05-17T04:05:13.472Z,22.06
2023-05-17T04:06:13.587Z,22.06
2023-05-17T04:07:13.493Z,22.05
2023-05-17T04:08:13.525Z,22.05
2023-05-17T04:09:13.558Z,22.05
2023-05-17T04:10:13.612Z,22.06
2023-05-17T04:11:13.643Z,22.06
2023-05-17T04:12:13.656Z,22.05
2023-05-17T04:13:13.701Z,22.05
2023-05-17T04:14:13.728Z,22.06
2023-05-17T04:15:13.773Z,22.06
2023-05-17T04:16:13.839Z,22.06
2023-05-17T04:17:16.239Z,22.07
2023-05-17T04:18:13.908Z,22.06
2023-05-17T04:19:13.901Z,22.05
2023-05-17T04:20:13.836Z,22.05
2023-05-17T04:21:13.835Z,22.05
2023-05-17T04:22:13.904Z,22.05
2023-05-17T04:23:13.824Z,22.05
2023-05-17T04:24:13.820Z,22.05
2023-05-17T04:25:13.806Z,22.05
2023-05-17T04:26:13.802Z,22.04
2023-05-17T04:27:13.788Z,22.04
2023-05-17T04:28:13.787Z,22.05
2023-05-17T04:29:13.778Z,22.05
2023-05-17T04:30:13.776Z,22.05
2023-05-17T04:31:13.772Z,22.05
2023-05-17T04:32:13.756Z,22.05
2023-05-17T04:33:14.453Z,22.04
2023-05-17T04:34:13.806Z,22.05
2023-05-17T04:35:13.750Z,22.05
2023-05-17T04:36:13.748Z,22.04
2023-05-17T04:37:13.734Z,22.04
2023-05-17T04:38:13.784Z,22.04
2023-05-17T04:39:13.704Z,22.05
2023-05-17T04:40:13.698Z,22.05
2023-05-17T04:41:13.704Z,22.05
2023-05-17T04:42:13.686Z,22.04
2023-05-17T04:43:13.730Z,22.04
2023-05-17T04:44:13.676Z,22.05
2023-05-17T04:45:15.503Z,22.05
2023-05-17T04:46:13.661Z,22.04
2023-05-17T04:47:13.695Z,22.04
2023-05-17T04:48:13.679Z,22.04
2023-05-17T04:49:13.651Z,22.03
2023-05-17T04:50:13.653Z,22.04
2023-05-17T04:51:13.623Z,22.04
2023-05-17T04:52:13.617Z,22.04
2023-05-17T04:53:13.632Z,22.04
2023-05-17T04:54:13.616Z,22.04
2023-05-17T04:55:13.594Z,22.03
2023-05-17T04:56:13.583Z,22.04
2023-05-17T04:57:13.585Z,22.03
2023-05-17T04:58:13.587Z,22.03
2023-05-17T04:59:13.664Z,22.03
2023-05-17T05:00:13.563Z,22.03
2023-05-17T05:01:13.624Z,22.03
2023-05-17T05:02:13.548Z,22.03
2023-05-17T05:03:13.673Z,22.03
2023-05-17T05:04:13.647Z,22.04
2023-05-17T05:05:13.598Z,22.03
2023-05-17T05:06:13.668Z,22.02
2023-05-17T05:07:13.677Z,22.02
2023-05-17T05:08:13.699Z,22.01
2023-05-17T05:09:13.740Z,22.03
2023-05-17T05:10:13.830Z,22.02
2023-05-17T05:11:13.747Z,22.02
2023-05-17T05:12:13.772Z,22.02
2023-05-17T05:13:13.781Z,22.02
2023-05-17T05:14:13.775Z,22.02
2023-05-17T05:15:13.822Z,22.01
2023-05-17T05:16:13.833Z,22.02
2023-05-17T05:17:13.838Z,22.02
2023-05-17T05:18:13.933Z,22.03
2023-05-17T05:19:14.013Z,22.03
2023-05-17T05:20:13.844Z,22.02
2023-05-17T05:21:13.837Z,22.02
2023-05-17T05:22:13.837Z,22.02
2023-05-17T05:23:13.838Z,22.02
2023-05-17T05:24:13.822Z,22.01
2023-05-17T05:25:13.826Z,22.01
2023-05-17T05:26:13.866Z,22.01
2023-05-17T05:27:13.829Z,22.02
2023-05-17T05:28:13.851Z,22.01
2023-05-17T05:29:13.835Z,22.02
2023-05-17T05:30:13.835Z,22.02
2023-05-17T05:31:13.856Z,22.01
2023-05-17T05:32:13.867Z,22.01
2023-05-17T05:33:13.956Z,22.01
2023-05-17T05:34:13.937Z,22.01
2023-05-17T05:35:13.928Z,22.01
2023-05-17T05:36:13.990Z,22.01
2023-05-17T05:37:13.945Z,22.05
2023-05-17T05:38:13.980Z,22.09
2023-05-17T05:39:14.036Z,22.11
2023-05-17T05:40:14.059Z,22.14
2023-05-17T05:41:14.089Z,22.19
2023-05-17T05:42:14.260Z,22.25
2023-05-17T05:43:14.226Z,22.31
2023-05-17T05:44:14.263Z,22.35
2023-05-17T05:45:14.312Z,22.38
2023-05-17T05:46:14.383Z,22.39
2023-05-17T05:47:14.439Z,22.37
2023-05-17T05:48:14.586Z,22.37
2023-05-17T05:49:14.545Z,22.34
2023-05-17T05:50:14.617Z,22.32
2023-05-17T05:51:14.670Z,22.31
2023-05-17T05:52:14.724Z,22.29
2023-05-17T05:53:19.518Z,22.27
2023-05-17T05:54:15.780Z,22.25
2023-05-17T05:55:14.823Z,22.25
2023-05-17T05:56:14.772Z,22.24
2023-05-17T05:57:14.761Z,22.24
2023-05-17T05:58:15.077Z,22.23
2023-05-17T05:59:14.734Z,22.23
2023-05-17T06:00:14.740Z,22.22
2023-05-17T06:01:14.744Z,22.21
2023-05-17T06:02:14.769Z,22.21
2023-05-17T06:03:14.836Z,22.22
2023-05-17T06:04:14.894Z,22.21
2023-05-17T06:05:15.018Z,22.21
2023-05-17T06:06:15.114Z,22.20
2023-05-17T06:07:15.143Z,22.20
2023-05-17T06:08:15.153Z,22.20
2023-05-17T06:09:15.232Z,22.19
2023-05-17T06:10:15.238Z,22.19
2023-05-17T06:11:15.269Z,22.19
2023-05-17T06:12:15.330Z,22.18
2023-05-17T06:13:15.396Z,22.18
2023-05-17T06:14:16.423Z,22.16
2023-05-17T06:15:15.537Z,22.16
2023-05-17T06:16:15.552Z,22.16
2023-05-17T06:17:15.585Z,22.17
2023-05-17T06:18:15.732Z,22.16
2023-05-17T06:19:15.753Z,22.15
2023-05-17T06:20:15.738Z,22.16
2023-05-17T06:21:15.808Z,22.15
2023-05-17T06:22:15.833Z,22.15
2023-05-17T06:23:16.411Z,22.14
2023-05-17T06:24:15.932Z,22.14
2023-05-17T06:25:15.976Z,22.13
2023-05-17T06:26:16.038Z,22.13
2023-05-17T06:27:16.082Z,22.13
2023-05-17T06:28:16.124Z,22.13
2023-05-17T06:29:16.190Z,22.13
2023-05-17T06:30:16.362Z,22.12
2023-05-17T06:31:16.293Z,22.11
2023-05-17T06:32:16.333Z,22.12
2023-05-17T06:33:16.520Z,22.11
2023-05-17T06:34:16.422Z,22.10
2023-05-17T06:35:16.434Z,22.11
2023-05-17T06:36:16.477Z,22.10
2023-05-17T06:37:16.529Z,22.10
2023-05-17T06:38:16.947Z,22.14
2023-05-17T06:39:16.624Z,22.18
2023-05-17T06:40:17.290Z,22.22
2023-05-17T06:41:16.731Z,22.27
2023-05-17T06:42:16.841Z,22.34
2023-05-17T06:43:16.861Z,22.41
2023-05-17T06:44:16.923Z,22.46
2023-05-17T06:45:16.885Z,22.51
2023-05-17T06:46:16.974Z,22.55
2023-05-17T06:47:17.001Z,22.61
2023-05-17T06:48:17.157Z,22.67
2023-05-17T06:49:16.982Z,22.72
2023-05-17T06:50:17.006Z,22.76
2023-05-17T06:51:17.007Z,22.79
2023-05-17T06:52:17.034Z,22.85
2023-05-17T06:53:17.447Z,22.91
2023-05-17T06:54:17.070Z,23.01
2023-05-17T06:55:17.035Z,23.07
2023-05-17T06:56:17.076Z,23.10
2023-05-17T06:57:17.278Z,23.14
2023-05-17T06:58:17.193Z,23.16
2023-05-17T06:59:17.232Z,23.19
2023-05-17T07:00:17.312Z,23.22
2023-05-17T07:01:17.361Z,23.25
2023-05-17T07:02:17.502Z,23.27
2023-05-17T07:03:17.568Z,23.30
2023-05-17T07:04:17.666Z,23.33
2023-05-17T07:05:17.631Z,23.35
2023-05-17T07:06:17.629Z,23.37
2023-05-17T07:07:17.690Z,23.39
2023-05-17T07:08:17.740Z,23.41
2023-05-17T07:09:17.812Z,23.42
2023-05-17T07:10:17.849Z,23.44
2023-05-17T07:11:17.903Z,23.47
2023-05-17T07:12:17.956Z,23.49
2023-05-17T07:13:18.056Z,23.50
2023-05-17T07:14:18.112Z,23.52
2023-05-17T07:15:18.126Z,23.53
2023-05-17T07:16:18.175Z,23.55
2023-05-17T07:17:18.236Z,23.58
2023-05-17T07:18:18.386Z,23.60
2023-05-17T07:19:18.397Z,23.62
2023-05-17T07:20:18.378Z,23.65
2023-05-17T07:21:18.428Z,23.67
2023-05-17T07:22:18.480Z,23.71
2023-05-17T07:23:18.545Z,23.72
2023-05-17T07:24:18.487Z,23.73
2023-05-17T07:25:19.475Z,23.75
2023-05-17T07:26:18.518Z,23.75
2023-05-17T07:27:18.526Z,23.77
2023-05-17T07:28:18.583Z,23.80
2023-05-17T07:29:18.509Z,23.82
2023-05-17T07:30:18.515Z,23.83
2023-05-17T07:31:18.483Z,23.84
2023-05-17T07:32:18.505Z,23.84
2023-05-17T07:33:18.502Z,23.84
2023-05-17T07:34:18.646Z,23.83
2023-05-17T07:35:20.254Z,23.82
2023-05-17T07:36:18.513Z,23.82
2023-05-17T07:37:18.447Z,23.84
2023-05-17T07:38:18.449Z,23.86
2023-05-17T07:39:18.444Z,23.87
2023-05-17T07:40:18.420Z,23.89
2023-05-17T07:41:18.417Z,23.91
2023-05-17T07:42:18.429Z,23.93
2023-05-17T07:43:18.405Z,23.92
2023-05-17T07:44:18.397Z,23.94
2023-05-17T07:45:18.388Z,23.95
2023-05-17T07:46:18.377Z,23.97
2023-05-17T07:47:18.471Z,24.00
2023-05-17T07:48:18.543Z,24.03
2023-05-17T07:49:18.486Z,24.05
2023-05-17T07:50:18.560Z,24.08
2023-05-17T07:51:18.389Z,24.12
2023-05-17T07:52:18.373Z,24.14
2023-05-17T07:53:18.435Z,24.16
2023-05-17T07:54:18.335Z,24.17
2023-05-17T07:55:18.340Z,24.18
2023-05-17T07:56:18.326Z,24.19
2023-05-17T07:57:19.940Z,24.19
2023-05-17T07:58:18.327Z,24.20
2023-05-17T07:59:18.303Z,24.21
2023-05-17T08:00:18.285Z,24.22
2023-05-17T08:01:18.341Z,24.22
2023-05-17T08:02:18.273Z,24.24
2023-05-17T08:03:18.315Z,24.25
2023-05-17T08:04:18.330Z,24.25
2023-05-17T08:05:18.292Z,24.25
2023-05-17T08:06:18.472Z,24.26
2023-05-17T08:07:18.469Z,24.27
2023-05-17T08:08:18.509Z,24.29
2023-05-17T08:09:18.524Z,24.30
2023-05-17T08:10:18.682Z,24.30
2023-05-17T08:11:18.665Z,24.29
2023-05-17T08:12:18.763Z,24.29
2023-05-17T08:13:18.768Z,24.30
2023-05-17T08:14:18.837Z,24.30
2023-05-17T08:15:18.899Z,24.31
2023-05-17T08:16:18.953Z,24.32
2023-05-17T08:17:19.013Z,24.33
2023-05-17T08:18:19.157Z,24.34
2023-05-17T08:19:19.289Z,24.35
2023-05-17T08:20:19.231Z,24.35
2023-05-17T08:21:19.271Z,24.35
2023-05-17T08:22:19.403Z,24.36
2023-05-17T08:23:19.340Z,24.37
2023-05-17T08:24:19.401Z,24.36
2023-05-17T08:25:19.459Z,24.36
2023-05-17T08:26:19.513Z,24.32
2023-05-17T08:27:19.563Z,24.16
2023-05-17T08:28:19.541Z,23.88
2023-05-17T08:29:19.589Z,23.61
2023-05-17T08:30:28.936Z,23.32
2023-05-17T08:31:20.604Z,23.09
2023-05-17T08:32:19.591Z,22.83
2023-05-17T08:33:19.754Z,22.60
2023-05-17T08:34:19.598Z,22.33
2023-05-17T08:35:19.589Z,22.18
2023-05-17T08:36:19.557Z,21.95
2023-05-17T08:37:19.633Z,21.76
2023-05-17T08:38:20.864Z,21.54
2023-05-17T08:39:19.555Z,21.36
2023-05-17T08:40:19.604Z,21.28
2023-05-17T08:41:19.582Z,21.23
2023-05-17T08:42:19.531Z,21.24
2023-05-17T08:43:19.962Z,21.35
2023-05-17T08:44:19.565Z,21.54
2023-05-17T08:45:19.494Z,21.71
2023-05-17T08:46:19.492Z,21.86
2023-05-17T08:47:19.480Z,22.00
2023-05-17T08:48:20.060Z,22.12
2023-05-17T08:49:19.696Z,22.24
2023-05-17T08:50:19.653Z,22.34
2023-05-17T08:51:19.661Z,22.43
2023-05-17T08:52:19.720Z,22.53
2023-05-17T08:53:19.767Z,22.62
2023-05-17T08:54:19.748Z,22.71
2023-05-17T08:55:19.755Z,22.79
2023-05-17T08:56:19.776Z,22.86
2023-05-17T08:57:19.758Z,22.95
2023-05-17T08:58:19.759Z,23.03
2023-05-17T08:59:19.788Z,23.10
2023-05-17T09:00:19.982Z,23.15
2023-05-17T09:01:19.910Z,23.21
2023-05-17T09:02:20.038Z,23.27
2023-05-17T09:03:20.579Z,23.30
2023-05-17T09:04:20.106Z,23.35
2023-05-17T09:05:20.160Z,23.38
2023-05-17T09:06:20.308Z,23.42
2023-05-17T09:07:20.224Z,23.47
2023-05-17T09:08:20.296Z,23.50
2023-05-17T09:09:20.345Z,23.53
2023-05-17T09:10:20.406Z,23.57
2023-05-17T09:11:20.474Z,23.59
2023-05-17T09:12:20.544Z,23.62
2023-05-17T09:13:20.556Z,23.66
2023-05-17T09:14:20.619Z,23.68
2023-05-17T09:15:20.657Z,23.71
2023-05-17T09:16:20.707Z,23.76
2023-05-17T09:17:20.733Z,23.79
2023-05-17T09:18:20.828Z,23.82
2023-05-17T09:19:20.902Z,23.84
2023-05-17T09:20:21.056Z,23.86
2023-05-17T09:21:20.857Z,23.90
2023-05-17T09:22:20.920Z,23.92
2023-05-17T09:23:20.896Z,23.95
2023-05-17T09:24:21.736Z,23.95
2023-05-17T09:25:20.976Z,23.95
2023-05-17T09:26:20.953Z,23.96
2023-05-17T09:27:20.983Z,23.96
2023-05-17T09:28:21.007Z,23.98
2023-05-17T09:29:21.011Z,23.99
2023-05-17T09:30:22.795Z,24.01
2023-05-17T09:31:21.071Z,24.01
2023-05-17T09:32:21.031Z,24.00
2023-05-17T09:33:21.572Z,24.01
2023-05-17T09:34:21.052Z,24.00
2023-05-17T09:35:21.071Z,23.97
2023-05-17T09:36:21.013Z,23.95
2023-05-17T09:37:20.989Z,23.92
2023-05-17T09:38:21.745Z,23.90
2023-05-17T09:39:21.022Z,23.88
2023-05-17T09:40:20.994Z,23.86
2023-05-17T09:41:20.978Z,23.84
2023-05-17T09:42:20.979Z,23.81
2023-05-17T09:43:20.999Z,23.78
2023-05-17T09:44:21.074Z,23.77
2023-05-17T09:45:20.983Z,23.75
2023-05-17T09:46:20.927Z,23.74
2023-05-17T09:47:21.986Z,23.72
2023-05-17T09:48:21.031Z,23.71
2023-05-17T09:49:20.957Z,23.70
2023-05-17T09:50:21.368Z,23.69
2023-05-17T09:51:20.924Z,23.69
2023-05-17T09:52:20.988Z,23.69
2023-05-17T09:53:21.033Z,23.68
2023-05-17T09:54:21.079Z,23.67
2023-05-17T09:55:21.182Z,23.67
2023-05-17T09:56:21.176Z,23.66
2023-05-17T09:57:21.221Z,23.67
2023-05-17T09:58:21.274Z,23.67
2023-05-17T09:59:21.327Z,23.66
2023-05-17T10:00:21.352Z,23.65
2023-05-17T10:01:21.420Z,23.66
2023-05-17T10:02:21.511Z,23.69
2023-05-17T10:03:21.574Z,23.71
2023-05-17T10:04:21.562Z,23.73
2023-05-17T10:05:21.650Z,23.75
2023-05-17T10:06:38.308Z,23.76
2023-05-17T10:07:22.634Z,23.76
2023-05-17T10:08:21.608Z,23.79
2023-05-17T10:09:21.677Z,23.79
2023-05-17T10:10:21.601Z,23.79
2023-05-17T10:11:21.582Z,23.81
2023-05-17T10:12:23.104Z,23.81
2023-05-17T10:13:21.583Z,23.82
2023-05-17T10:14:21.587Z,23.82
2023-05-17T10:15:21.591Z,23.83
2023-05-17T10:16:21.578Z,23.87
2023-05-17T10:17:21.552Z,23.90
2023-05-17T10:18:21.683Z,23.93
2023-05-17T10:19:21.963Z,23.94
2023-05-17T10:20:21.695Z,23.92
2023-05-17T10:21:21.558Z,23.92
2023-05-17T10:22:23.730Z,23.92
2023-05-17T10:23:21.629Z,23.92
2023-05-17T10:24:21.731Z,23.94
2023-05-17T10:25:21.716Z,23.93
2023-05-17T10:26:21.701Z,23.94
2023-05-17T10:27:21.752Z,23.96
2023-05-17T10:28:21.740Z,23.97
2023-05-17T10:29:21.747Z,24.00
2023-05-17T10:30:21.855Z,24.06
2023-05-17T10:31:21.776Z,24.09
2023-05-17T10:32:21.853Z,24.12
2023-05-17T10:33:22.134Z,24.11
2023-05-17T10:34:22.058Z,24.11
2023-05-17T10:35:21.759Z,24.09
2023-05-17T10:36:21.768Z,24.07
2023-05-17T10:37:21.798Z,24.07
2023-05-17T10:38:24.069Z,24.06
2023-05-17T10:39:21.846Z,24.05
2023-05-17T10:40:21.782Z,24.06
2023-05-17T10:41:21.776Z,24.05
2023-05-17T10:42:21.756Z,24.04
2023-05-17T10:43:22.009Z,24.04
2023-05-17T10:44:21.761Z,24.04
2023-05-17T10:45:21.742Z,24.05
2023-05-17T10:46:21.776Z,24.06
2023-05-17T10:47:21.743Z,24.07
2023-05-17T10:48:22.169Z,24.08
2023-05-17T10:49:24.573Z,24.09
2023-05-17T10:50:21.703Z,24.10
2023-05-17T10:51:21.702Z,24.09
2023-05-17T10:52:21.723Z,24.10
2023-05-17T10:53:21.698Z,24.10
2023-05-17T10:54:21.666Z,24.12
2023-05-17T10:55:21.673Z,24.13
2023-05-17T10:56:21.698Z,24.13
2023-05-17T10:57:21.678Z,24.14
2023-05-17T10:58:21.645Z,24.14
2023-05-17T10:59:21.794Z,24.14
2023-05-17T11:00:21.873Z,24.15
2023-05-17T11:01:21.648Z,24.16
2023-05-17T11:02:21.646Z,24.16
2023-05-17T11:03:21.668Z,24.15
2023-05-17T11:04:21.700Z,24.15
2023-05-17T11:05:21.646Z,24.16
2023-05-17T11:06:24.649Z,24.16
2023-05-17T11:07:21.620Z,24.16
2023-05-17T11:08:21.591Z,24.18
2023-05-17T11:09:21.577Z,24.18
2023-05-17T11:10:21.590Z,24.19
2023-05-17T11:11:21.576Z,24.19
2023-05-17T11:12:21.556Z,24.19
2023-05-17T11:13:21.566Z,24.20
2023-05-17T11:14:21.571Z,24.19
2023-05-17T11:15:21.574Z,24.20
2023-05-17T11:16:21.545Z,24.21
2023-05-17T11:17:21.715Z,24.21
2023-05-17T11:18:30.442Z,24.21
2023-05-17T11:19:22.608Z,24.21
2023-05-17T11:20:21.645Z,24.25
2023-05-17T11:21:21.552Z,24.26
2023-05-17T11:22:21.521Z,24.25
2023-05-17T11:23:21.510Z,24.22
2023-05-17T11:24:22.415Z,24.19
2023-05-17T11:25:21.475Z,24.16
2023-05-17T11:26:21.491Z,24.12
2023-05-17T11:27:21.454Z,24.07
2023-05-17T11:28:21.548Z,24.02
2023-05-17T11:29:21.455Z,23.98
2023-05-17T11:30:21.466Z,23.94
2023-05-17T11:31:21.461Z,23.90
2023-05-17T11:32:21.541Z,23.88
2023-05-17T11:33:33.006Z,23.86
2023-05-17T11:34:22.444Z,23.83
2023-05-17T11:35:21.431Z,23.80
2023-05-17T11:36:21.402Z,23.78
2023-05-17T11:37:21.387Z,23.75
2023-05-17T11:38:21.404Z,23.72
2023-05-17T11:39:21.369Z,23.71
2023-05-17T11:40:21.394Z,23.68
2023-05-17T11:42:21.374Z,23.64
2023-05-17T11:43:21.588Z,23.64
2023-05-17T11:44:21.373Z,23.62
2023-05-17T11:45:21.373Z,23.60
2023-05-17T11:46:21.355Z,23.58
2023-05-17T11:47:21.407Z,23.57
2023-05-17T11:48:21.465Z,23.56
2023-05-17T11:49:34.254Z,23.54
2023-05-17T11:50:22.314Z,23.52
2023-05-17T11:51:24.383Z,23.51
2023-05-17T11:52:21.316Z,23.49
2023-05-17T11:53:21.335Z,23.48
2023-05-17T11:54:21.284Z,23.47
2023-05-17T11:55:21.298Z,23.44
2023-05-17T11:56:26.503Z,23.44
2023-05-17T11:57:22.266Z,23.42
2023-05-17T11:58:21.249Z,23.41
2023-05-17T11:59:21.253Z,23.40
2023-05-17T12:00:21.242Z,23.38
2023-05-17T12:01:21.256Z,23.38
2023-05-17T12:02:21.227Z,23.37
2023-05-17T12:03:21.223Z,23.35
2023-05-17T12:04:21.263Z,23.35
2023-05-17T12:05:21.220Z,23.34
2023-05-17T12:06:21.275Z,23.33
2023-05-17T12:07:21.310Z,23.31
2023-05-17T12:08:21.358Z,23.30
2023-05-17T12:09:21.421Z,23.29
2023-05-17T12:10:21.499Z,23.29
2023-05-17T12:11:21.545Z,23.27
2023-05-17T12:12:21.608Z,23.26
2023-05-17T12:13:21.672Z,23.26
2023-05-17T12:14:21.759Z,23.25
2023-05-17T12:15:21.795Z,23.24
2023-05-17T12:16:21.837Z,23.23
2023-05-17T12:17:21.878Z,23.22
2023-05-17T12:18:21.967Z,23.21
2023-05-17T12:19:22.096Z,23.21
2023-05-17T12:20:22.046Z,23.20
2023-05-17T12:21:22.091Z,23.18
2023-05-17T12:22:22.162Z,23.17
2023-05-17T12:23:22.189Z,23.17
2023-05-17T12:24:22.277Z,23.16
2023-05-17T12:25:22.240Z,23.15
2023-05-17T12:26:22.272Z,23.14
2023-05-17T12:27:22.314Z,23.13
2023-05-17T12:28:22.395Z,23.12
2023-05-17T12:29:22.351Z,23.12
2023-05-17T12:30:22.338Z,23.11
2023-05-17T12:31:22.384Z,23.11
2023-05-17T12:32:22.422Z,23.10
2023-05-17T12:33:22.460Z,23.09
2023-05-17T12:34:22.389Z,23.08
2023-05-17T12:35:22.401Z,23.07
2023-05-17T12:36:22.379Z,23.07
2023-05-17T12:37:22.388Z,23.07
2023-05-17T12:38:22.383Z,23.06
2023-05-17T12:39:22.390Z,23.05
2023-05-17T12:40:22.381Z,23.05
2023-05-17T12:41:22.389Z,23.04
2023-05-17T12:42:22.434Z,23.04
2023-05-17T12:43:22.400Z,23.03
2023-05-17T12:44:22.437Z,23.03
2023-05-17T12:45:22.408Z,23.02
2023-05-17T12:46:22.396Z,23.03
2023-05-17T12:47:22.397Z,23.01
2023-05-17T12:48:22.412Z,23.02
2023-05-17T12:49:22.401Z,23.01
2023-05-17T12:50:22.426Z,23.00
2023-05-17T12:51:22.419Z,22.99
2023-05-17T12:52:23.047Z,22.99
2023-05-17T12:53:22.414Z,22.98